Taylor, Utah
Current Conditions -  °F | °C
As of 12:53 AM on Thursday 27 Nov 2014 (Local Time) from KOGD Reporting Station
Clear Clear  
Wind Chill: 33°   Ceiling: Unl
Heat Index: 40°   Visibility: 10mi
Dew Point: 28°   Wind: 10mph
Humidity: 63%   Direction: 160°SSE
Pressure: 30.33"   Gusts: NA
Location:  41.2221°N, 112.033°W
Report Text: KOGD 270753Z AUTO 16009KT 10SM CLR 04/M02 A3033 RMK AO2 SLP257 T00441022 TSNO
Loading
Personal Weather Stations






























Interactive Weather Map New forecast layout! Learn more

10-Day Weather Forecast

Advertisements
Track Severe Weather on mobile